sensor_id;sensor_type;location;lat;lon;timestamp;P1;durP1;ratioP1;P2;durP2;ratioP2
37633;SDS011;32048;49.902;22.508;2022-09-09T00:09:19;49.30;;;34.10;;
37633;SDS011;32048;49.902;22.508;2022-09-09T00:11:52;57.08;;;34.17;;
37633;SDS011;32048;49.902;22.508;2022-09-09T00:14:25;54.72;;;32.72;;
37633;SDS011;32048;49.902;22.508;2022-09-09T00:17:02;55.53;;;35.15;;
37633;SDS011;32048;49.902;22.508;2022-09-09T00:19:46;56.20;;;34.33;;
37633;SDS011;32048;49.902;22.508;2022-09-09T00:22:18;53.88;;;33.78;;
37633;SDS011;32048;49.902;22.508;2022-09-09T00:24:53;51.42;;;32.42;;
37633;SDS011;32048;49.902;22.508;2022-09-09T00:27:32;54.15;;;34.38;;
37633;SDS011;32048;49.902;22.508;2022-09-09T00:30:17;59.03;;;34.60;;
37633;SDS011;32048;49.902;22.508;2022-09-09T00:32:50;60.30;;;35.33;;
37633;SDS011;32048;49.902;22.508;2022-09-09T00:35:24;57.22;;;34.28;;
37633;SDS011;32048;49.902;22.508;2022-09-09T00:37:53;54.95;;;33.47;;
37633;SDS011;32048;49.902;22.508;2022-09-09T00:40:31;49.70;;;31.98;;
37633;SDS011;32048;49.902;22.508;2022-09-09T00:43:05;53.42;;;33.15;;
37633;SDS011;32048;49.902;22.508;2022-09-09T00:48:19;49.78;;;31.40;;
37633;SDS011;32048;49.902;22.508;2022-09-09T00:50:56;56.00;;;32.10;;
37633;SDS011;32048;49.902;22.508;2022-09-09T00:56:05;51.88;;;31.25;;
37633;SDS011;32048;49.902;22.508;2022-09-09T00:58:42;50.60;;;31.27;;
37633;SDS011;32048;49.902;22.508;2022-09-09T01:01:16;56.50;;;32.03;;
37633;SDS011;32048;49.902;22.508;2022-09-09T01:03:54;50.78;;;32.75;;
37633;SDS011;32048;49.902;22.508;2022-09-09T01:09:13;49.25;;;33.17;;
37633;SDS011;32048;49.902;22.508;2022-09-09T01:12:09;52.38;;;33.00;;
37633;SDS011;32048;49.902;22.508;2022-09-09T01:14:45;56.92;;;33.28;;
37633;SDS011;32048;49.902;22.508;2022-09-09T01:17:17;47.40;;;29.30;;
37633;SDS011;32048;49.902;22.508;2022-09-09T01:28:21;46.95;;;31.70;;
37633;SDS011;32048;49.902;22.508;2022-09-09T01:30:52;49.28;;;30.15;;
37633;SDS011;32048;49.902;22.508;2022-09-09T01:33:19;47.85;;;30.60;;
37633;SDS011;32048;49.902;22.508;2022-09-09T01:38:21;50.65;;;31.17;;
37633;SDS011;32048;49.902;22.508;2022-09-09T01:40:48;46.30;;;29.55;;
37633;SDS011;32048;49.902;22.508;2022-09-09T01:43:19;46.47;;;29.17;;
37633;SDS011;32048;49.902;22.508;2022-09-09T01:48:16;49.65;;;29.83;;
37633;SDS011;32048;49.902;22.508;2022-09-09T01:53:12;49.25;;;27.85;;
37633;SDS011;32048;49.902;22.508;2022-09-09T01:55:41;45.75;;;29.05;;
37633;SDS011;32048;49.902;22.508;2022-09-09T01:58:26;44.88;;;28.50;;
37633;SDS011;32048;49.902;22.508;2022-09-09T02:01:13;52.10;;;28.90;;
37633;SDS011;32048;49.902;22.508;2022-09-09T02:03:56;47.47;;;26.98;;
37633;SDS011;32048;49.902;22.508;2022-09-09T02:06:28;43.10;;;26.98;;
37633;SDS011;32048;49.902;22.508;2022-09-09T02:09:01;44.40;;;26.83;;
37633;SDS011;32048;49.902;22.508;2022-09-09T02:11:31;45.22;;;26.85;;
37633;SDS011;32048;49.902;22.508;2022-09-09T02:16:55;50.42;;;28.15;;
37633;SDS011;32048;49.902;22.508;2022-09-09T02:19:29;47.33;;;27.77;;
37633;SDS011;32048;49.902;22.508;2022-09-09T02:22:01;40.42;;;24.60;;
37633;SDS011;32048;49.902;22.508;2022-09-09T02:24:29;42.22;;;25.73;;
37633;SDS011;32048;49.902;22.508;2022-09-09T02:27:02;44.35;;;26.70;;
37633;SDS011;32048;49.902;22.508;2022-09-09T02:29:36;46.20;;;27.35;;
37633;SDS011;32048;49.902;22.508;2022-09-09T02:32:09;41.50;;;26.05;;
37633;SDS011;32048;49.902;22.508;2022-09-09T02:34:42;41.88;;;25.17;;
37633;SDS011;32048;49.902;22.508;2022-09-09T02:37:11;42.58;;;28.15;;
37633;SDS011;32048;49.902;22.508;2022-09-09T02:39:41;42.50;;;26.10;;
37633;SDS011;32048;49.902;22.508;2022-09-09T02:42:08;41.17;;;26.27;;
37633;SDS011;32048;49.902;22.508;2022-09-09T02:44:36;48.47;;;27.35;;
37633;SDS011;32048;49.902;22.508;2022-09-09T02:47:25;42.20;;;26.50;;
37633;SDS011;32048;49.902;22.508;2022-09-09T02:52:42;42.78;;;26.40;;
37633;SDS011;32048;49.902;22.508;2022-09-09T02:55:17;43.05;;;27.98;;
37633;SDS011;32048;49.902;22.508;2022-09-09T02:58:07;44.60;;;28.00;;
37633;SDS011;32048;49.902;22.508;2022-09-09T03:00:39;41.55;;;25.92;;
37633;SDS011;32048;49.902;22.508;2022-09-09T03:03:07;46.00;;;26.30;;
37633;SDS011;32048;49.902;22.508;2022-09-09T03:05:35;42.90;;;25.58;;
37633;SDS011;32048;49.902;22.508;2022-09-09T03:08:03;45.60;;;26.65;;
37633;SDS011;32048;49.902;22.508;2022-09-09T03:10:32;47.58;;;27.20;;
37633;SDS011;32048;49.902;22.508;2022-09-09T03:12:59;47.85;;;27.00;;
37633;SDS011;32048;49.902;22.508;2022-09-09T03:15:26;40.67;;;27.63;;
37633;SDS011;32048;49.902;22.508;2022-09-09T03:17:58;44.28;;;26.63;;
37633;SDS011;32048;49.902;22.508;2022-09-09T03:20:29;49.13;;;27.65;;
37633;SDS011;32048;49.902;22.508;2022-09-09T03:22:57;45.22;;;26.92;;
37633;SDS011;32048;49.902;22.508;2022-09-09T03:25:26;49.25;;;27.35;;
37633;SDS011;32048;49.902;22.508;2022-09-09T03:27:53;42.10;;;26.13;;
37633;SDS011;32048;49.902;22.508;2022-09-09T03:30:25;46.38;;;28.63;;
37633;SDS011;32048;49.902;22.508;2022-09-09T03:32:53;43.88;;;28.15;;
37633;SDS011;32048;49.902;22.508;2022-09-09T03:35:21;44.30;;;27.45;;
37633;SDS011;32048;49.902;22.508;2022-09-09T03:37:48;42.00;;;26.80;;
37633;SDS011;32048;49.902;22.508;2022-09-09T03:40:15;45.75;;;27.55;;
37633;SDS011;32048;49.902;22.508;2022-09-09T03:42:42;41.58;;;27.85;;
37633;SDS011;32048;49.902;22.508;2022-09-09T03:45:11;40.50;;;24.65;;
37633;SDS011;32048;49.902;22.508;2022-09-09T03:47:38;45.67;;;28.60;;
37633;SDS011;32048;49.902;22.508;2022-09-09T03:50:05;46.70;;;28.08;;
37633;SDS011;32048;49.902;22.508;2022-09-09T03:52:35;43.40;;;27.90;;
37633;SDS011;32048;49.902;22.508;2022-09-09T03:55:07;41.70;;;26.55;;
37633;SDS011;32048;49.902;22.508;2022-09-09T03:57:34;45.72;;;28.20;;
37633;SDS011;32048;49.902;22.508;2022-09-09T04:00:06;41.45;;;27.05;;
37633;SDS011;32048;49.902;22.508;2022-09-09T04:02:33;48.90;;;28.10;;
37633;SDS011;32048;49.902;22.508;2022-09-09T04:05:00;41.13;;;26.90;;
37633;SDS011;32048;49.902;22.508;2022-09-09T04:07:27;40.28;;;27.48;;
37633;SDS011;32048;49.902;22.508;2022-09-09T04:09:55;47.15;;;28.98;;
37633;SDS011;32048;49.902;22.508;2022-09-09T04:12:21;42.35;;;28.95;;
37633;SDS011;32048;49.902;22.508;2022-09-09T04:14:49;46.25;;;28.48;;
37633;SDS011;32048;49.902;22.508;2022-09-09T04:17:16;46.35;;;27.48;;
37633;SDS011;32048;49.902;22.508;2022-09-09T04:19:43;43.83;;;27.50;;
37633;SDS011;32048;49.902;22.508;2022-09-09T04:22:10;43.22;;;28.95;;
37633;SDS011;32048;49.902;22.508;2022-09-09T04:24:37;45.35;;;27.48;;
37633;SDS011;32048;49.902;22.508;2022-09-09T04:27:04;43.05;;;26.45;;
37633;SDS011;32048;49.902;22.508;2022-09-09T04:29:31;45.67;;;29.50;;
37633;SDS011;32048;49.902;22.508;2022-09-09T04:31:58;44.88;;;28.55;;
37633;SDS011;32048;49.902;22.508;2022-09-09T04:34:25;46.15;;;28.73;;
37633;SDS011;32048;49.902;22.508;2022-09-09T04:36:52;46.70;;;27.63;;
37633;SDS011;32048;49.902;22.508;2022-09-09T04:39:19;48.70;;;27.88;;
37633;SDS011;32048;49.902;22.508;2022-09-09T04:41:46;45.70;;;29.08;;
37633;SDS011;32048;49.902;22.508;2022-09-09T04:44:13;51.30;;;29.25;;
37633;SDS011;32048;49.902;22.508;2022-09-09T04:46:40;46.72;;;30.05;;
37633;SDS011;32048;49.902;22.508;2022-09-09T04:49:07;49.72;;;28.85;;
37633;SDS011;32048;49.902;22.508;2022-09-09T04:51:40;40.00;;;26.52;;
37633;SDS011;32048;49.902;22.508;2022-09-09T04:54:08;52.95;;;29.40;;
37633;SDS011;32048;49.902;22.508;2022-09-09T04:56:35;39.95;;;26.92;;
37633;SDS011;32048;49.902;22.508;2022-09-09T04:59:02;41.70;;;27.95;;
37633;SDS011;32048;49.902;22.508;2022-09-09T05:01:29;44.97;;;28.95;;
37633;SDS011;32048;49.902;22.508;2022-09-09T05:03:56;41.60;;;26.67;;
37633;SDS011;32048;49.902;22.508;2022-09-09T05:06:23;41.88;;;27.20;;
37633;SDS011;32048;49.902;22.508;2022-09-09T05:08:51;39.47;;;26.83;;
37633;SDS011;32048;49.902;22.508;2022-09-09T05:11:27;41.05;;;25.85;;
37633;SDS011;32048;49.902;22.508;2022-09-09T05:13:56;44.33;;;27.17;;
37633;SDS011;32048;49.902;22.508;2022-09-09T05:16:23;44.90;;;25.70;;
37633;SDS011;32048;49.902;22.508;2022-09-09T05:18:50;42.45;;;25.75;;
37633;SDS011;32048;49.902;22.508;2022-09-09T05:21:18;45.50;;;26.02;;
37633;SDS011;32048;49.902;22.508;2022-09-09T05:23:46;40.30;;;26.60;;
37633;SDS011;32048;49.902;22.508;2022-09-09T05:26:17;43.60;;;24.98;;
37633;SDS011;32048;49.902;22.508;2022-09-09T05:28:46;42.60;;;27.10;;
37633;SDS011;32048;49.902;22.508;2022-09-09T05:31:14;35.00;;;25.33;;
37633;SDS011;32048;49.902;22.508;2022-09-09T05:33:43;39.30;;;25.52;;
37633;SDS011;32048;49.902;22.508;2022-09-09T05:36:13;42.97;;;24.85;;
37633;SDS011;32048;49.902;22.508;2022-09-09T05:38:43;43.97;;;27.75;;
37633;SDS011;32048;49.902;22.508;2022-09-09T05:41:11;43.25;;;28.02;;
37633;SDS011;32048;49.902;22.508;2022-09-09T05:43:39;46.47;;;27.30;;
37633;SDS011;32048;49.902;22.508;2022-09-09T05:46:06;41.17;;;26.98;;
37633;SDS011;32048;49.902;22.508;2022-09-09T05:48:35;42.72;;;26.80;;
37633;SDS011;32048;49.902;22.508;2022-09-09T05:51:10;38.78;;;25.55;;
37633;SDS011;32048;49.902;22.508;2022-09-09T05:53:39;44.70;;;28.00;;
37633;SDS011;32048;49.902;22.508;2022-09-09T05:56:06;44.25;;;27.75;;
37633;SDS011;32048;49.902;22.508;2022-09-09T05:58:37;33.83;;;24.23;;
37633;SDS011;32048;49.902;22.508;2022-09-09T06:03:36;40.65;;;26.17;;
37633;SDS011;32048;49.902;22.508;2022-09-09T06:06:06;37.92;;;25.50;;
37633;SDS011;32048;49.902;22.508;2022-09-09T06:08:35;37.97;;;24.63;;
37633;SDS011;32048;49.902;22.508;2022-09-09T06:13:32;35.50;;;24.65;;
37633;SDS011;32048;49.902;22.508;2022-09-09T06:15:59;42.22;;;26.35;;
37633;SDS011;32048;49.902;22.508;2022-09-09T06:18:26;41.33;;;24.77;;
37633;SDS011;32048;49.902;22.508;2022-09-09T06:20:54;41.30;;;24.50;;
37633;SDS011;32048;49.902;22.508;2022-09-09T06:23:22;39.40;;;23.63;;
37633;SDS011;32048;49.902;22.508;2022-09-09T06:28:33;34.17;;;24.63;;
37633;SDS011;32048;49.902;22.508;2022-09-09T06:31:01;36.65;;;25.50;;
37633;SDS011;32048;49.902;22.508;2022-09-09T06:33:31;38.75;;;25.75;;
37633;SDS011;32048;49.902;22.508;2022-09-09T06:36:01;38.63;;;25.65;;
37633;SDS011;32048;49.902;22.508;2022-09-09T06:38:30;35.72;;;26.15;;
37633;SDS011;32048;49.902;22.508;2022-09-09T06:40:58;39.53;;;24.83;;
37633;SDS011;32048;49.902;22.508;2022-09-09T06:43:26;36.40;;;24.70;;
37633;SDS011;32048;49.902;22.508;2022-09-09T06:46:02;34.63;;;24.75;;
37633;SDS011;32048;49.902;22.508;2022-09-09T06:48:32;39.33;;;26.58;;
37633;SDS011;32048;49.902;22.508;2022-09-09T06:51:09;34.55;;;24.58;;
37633;SDS011;32048;49.902;22.508;2022-09-09T06:53:38;32.80;;;24.40;;
37633;SDS011;32048;49.902;22.508;2022-09-09T06:58:44;38.95;;;24.55;;
37633;SDS011;32048;49.902;22.508;2022-09-09T07:01:12;37.00;;;25.70;;
37633;SDS011;32048;49.902;22.508;2022-09-09T07:03:41;37.95;;;24.58;;
37633;SDS011;32048;49.902;22.508;2022-09-09T07:06:13;38.97;;;29.23;;
37633;SDS011;32048;49.902;22.508;2022-09-09T07:08:43;41.80;;;28.13;;
37633;SDS011;32048;49.902;22.508;2022-09-09T07:11:22;41.92;;;28.88;;
37633;SDS011;32048;49.902;22.508;2022-09-09T07:13:52;37.28;;;27.00;;
37633;SDS011;32048;49.902;22.508;2022-09-09T07:16:19;42.60;;;28.67;;
37633;SDS011;32048;49.902;22.508;2022-09-09T07:18:48;38.83;;;26.80;;
37633;SDS011;32048;49.902;22.508;2022-09-09T07:21:17;40.40;;;27.83;;
37633;SDS011;32048;49.902;22.508;2022-09-09T07:23:45;37.88;;;26.95;;
37633;SDS011;32048;49.902;22.508;2022-09-09T07:26:13;39.13;;;26.90;;
37633;SDS011;32048;49.902;22.508;2022-09-09T07:28:42;37.00;;;27.23;;
37633;SDS011;32048;49.902;22.508;2022-09-09T07:31:13;43.70;;;29.45;;
37633;SDS011;32048;49.902;22.508;2022-09-09T07:33:47;44.70;;;29.70;;
37633;SDS011;32048;49.902;22.508;2022-09-09T07:38:52;40.10;;;26.42;;
37633;SDS011;32048;49.902;22.508;2022-09-09T07:41:22;42.50;;;26.98;;
37633;SDS011;32048;49.902;22.508;2022-09-09T07:43:51;36.63;;;26.70;;
37633;SDS011;32048;49.902;22.508;2022-09-09T07:46:21;38.05;;;25.83;;
37633;SDS011;32048;49.902;22.508;2022-09-09T07:48:51;38.65;;;24.98;;
37633;SDS011;32048;49.902;22.508;2022-09-09T07:51:20;37.50;;;25.98;;
37633;SDS011;32048;49.902;22.508;2022-09-09T07:53:51;39.47;;;25.35;;
37633;SDS011;32048;49.902;22.508;2022-09-09T07:56:20;40.58;;;26.80;;
37633;SDS011;32048;49.902;22.508;2022-09-09T07:58:50;44.58;;;33.50;;
37633;SDS011;32048;49.902;22.508;2022-09-09T08:01:20;38.85;;;26.63;;
37633;SDS011;32048;49.902;22.508;2022-09-09T08:03:57;35.90;;;26.80;;
37633;SDS011;32048;49.902;22.508;2022-09-09T08:06:28;31.92;;;25.42;;
37633;SDS011;32048;49.902;22.508;2022-09-09T08:08:57;34.40;;;24.20;;
37633;SDS011;32048;49.902;22.508;2022-09-09T08:11:24;30.58;;;22.83;;
37633;SDS011;32048;49.902;22.508;2022-09-09T08:13:53;28.95;;;22.02;;
37633;SDS011;32048;49.902;22.508;2022-09-09T08:16:28;29.23;;;21.40;;
37633;SDS011;32048;49.902;22.508;2022-09-09T08:18:57;32.35;;;23.25;;
37633;SDS011;32048;49.902;22.508;2022-09-09T08:21:25;29.45;;;21.88;;
37633;SDS011;32048;49.902;22.508;2022-09-09T08:23:55;32.40;;;21.63;;
37633;SDS011;32048;49.902;22.508;2022-09-09T08:28:52;27.27;;;19.67;;
37633;SDS011;32048;49.902;22.508;2022-09-09T08:31:21;23.77;;;17.48;;
37633;SDS011;32048;49.902;22.508;2022-09-09T08:33:55;20.20;;;14.90;;
37633;SDS011;32048;49.902;22.508;2022-09-09T08:36:23;18.70;;;14.70;;
37633;SDS011;32048;49.902;22.508;2022-09-09T08:38:54;19.50;;;15.60;;
37633;SDS011;32048;49.902;22.508;2022-09-09T08:43:50;20.88;;;15.35;;
37633;SDS011;32048;49.902;22.508;2022-09-09T08:46:29;18.30;;;15.88;;
37633;SDS011;32048;49.902;22.508;2022-09-09T08:49:11;19.15;;;14.15;;
37633;SDS011;32048;49.902;22.508;2022-09-09T08:51:46;24.08;;;14.13;;
37633;SDS011;32048;49.902;22.508;2022-09-09T08:54:15;19.67;;;14.43;;
37633;SDS011;32048;49.902;22.508;2022-09-09T08:57:03;18.83;;;13.73;;
37633;SDS011;32048;49.902;22.508;2022-09-09T08:59:39;16.73;;;12.93;;
37633;SDS011;32048;49.902;22.508;2022-09-09T09:02:17;16.60;;;12.13;;
37633;SDS011;32048;49.902;22.508;2022-09-09T09:16:30;15.23;;;11.65;;
37633;SDS011;32048;49.902;22.508;2022-09-09T09:19:05;14.40;;;10.52;;
37633;SDS011;32048;49.902;22.508;2022-09-09T09:21:41;12.73;;;10.43;;
37633;SDS011;32048;49.902;22.508;2022-09-09T09:24:20;13.13;;;10.23;;
37633;SDS011;32048;49.902;22.508;2022-09-09T09:26:52;14.75;;;10.68;;
37633;SDS011;32048;49.902;22.508;2022-09-09T09:29:19;15.02;;;10.70;;
37633;SDS011;32048;49.902;22.508;2022-09-09T09:31:53;16.08;;;11.07;;
37633;SDS011;32048;49.902;22.508;2022-09-09T09:34:23;16.00;;;11.93;;
37633;SDS011;32048;49.902;22.508;2022-09-09T09:36:54;14.60;;;11.52;;
37633;SDS011;32048;49.902;22.508;2022-09-09T09:39:27;15.07;;;11.32;;
37633;SDS011;32048;49.902;22.508;2022-09-09T09:42:16;13.25;;;11.02;;
37633;SDS011;32048;49.902;22.508;2022-09-09T09:44:49;15.70;;;12.02;;
37633;SDS011;32048;49.902;22.508;2022-09-09T09:47:17;16.17;;;12.25;;
37633;SDS011;32048;49.902;22.508;2022-09-09T09:49:55;18.42;;;12.90;;
37633;SDS011;32048;49.902;22.508;2022-09-09T09:52:27;15.63;;;12.40;;
37633;SDS011;32048;49.902;22.508;2022-09-09T09:54:56;19.27;;;13.32;;
37633;SDS011;32048;49.902;22.508;2022-09-09T09:57:32;21.60;;;14.20;;
37633;SDS011;32048;49.902;22.508;2022-09-09T10:00:06;17.45;;;11.70;;
37633;SDS011;32048;49.902;22.508;2022-09-09T10:02:41;15.93;;;12.75;;
37633;SDS011;32048;49.902;22.508;2022-09-09T10:05:14;15.68;;;11.25;;
37633;SDS011;32048;49.902;22.508;2022-09-09T10:07:44;15.18;;;11.73;;
37633;SDS011;32048;49.902;22.508;2022-09-09T10:10:29;27.58;;;12.32;;
37633;SDS011;32048;49.902;22.508;2022-09-09T10:13:20;16.95;;;10.95;;
37633;SDS011;32048;49.902;22.508;2022-09-09T10:27:21;40.53;;;14.80;;
37633;SDS011;32048;49.902;22.508;2022-09-09T10:35:21;16.42;;;13.13;;
37633;SDS011;32048;49.902;22.508;2022-09-09T10:37:58;18.42;;;12.40;;
37633;SDS011;32048;49.902;22.508;2022-09-09T10:51:27;13.18;;;11.23;;
37633;SDS011;32048;49.902;22.508;2022-09-09T10:56:52;17.60;;;12.05;;
37633;SDS011;32048;49.902;22.508;2022-09-09T10:59:26;13.80;;;11.05;;
37633;SDS011;32048;49.902;22.508;2022-09-09T11:04:41;13.43;;;11.40;;
37633;SDS011;32048;49.902;22.508;2022-09-09T11:07:13;14.35;;;11.32;;
37633;SDS011;32048;49.902;22.508;2022-09-09T11:09:53;13.77;;;9.57;;
37633;SDS011;32048;49.902;22.508;2022-09-09T11:12:26;17.00;;;10.75;;
37633;SDS011;32048;49.902;22.508;2022-09-09T11:15:01;12.80;;;9.98;;
37633;SDS011;32048;49.902;22.508;2022-09-09T11:17:39;11.35;;;9.20;;
37633;SDS011;32048;49.902;22.508;2022-09-09T11:20:12;10.02;;;8.50;;
37633;SDS011;32048;49.902;22.508;2022-09-09T11:22:43;12.73;;;7.47;;
37633;SDS011;32048;49.902;22.508;2022-09-09T11:25:39;9.98;;;7.53;;
37633;SDS011;32048;49.902;22.508;2022-09-09T11:33:41;13.00;;;9.88;;
37633;SDS011;32048;49.902;22.508;2022-09-09T11:41:52;13.13;;;9.80;;
37633;SDS011;32048;49.902;22.508;2022-09-09T11:44:24;12.35;;;8.93;;
37633;SDS011;32048;49.902;22.508;2022-09-09T11:46:55;14.10;;;9.68;;
37633;SDS011;32048;49.902;22.508;2022-09-09T11:49:44;12.57;;;10.18;;
37633;SDS011;32048;49.902;22.508;2022-09-09T11:52:19;14.30;;;9.63;;
37633;SDS011;32048;49.902;22.508;2022-09-09T11:54:48;12.10;;;9.35;;
37633;SDS011;32048;49.902;22.508;2022-09-09T11:57:38;13.15;;;9.63;;
37633;SDS011;32048;49.902;22.508;2022-09-09T12:00:05;13.55;;;9.82;;
37633;SDS011;32048;49.902;22.508;2022-09-09T12:02:32;15.35;;;11.15;;
37633;SDS011;32048;49.902;22.508;2022-09-09T12:07:36;14.50;;;11.38;;
37633;SDS011;32048;49.902;22.508;2022-09-09T12:12:35;17.83;;;12.80;;
37633;SDS011;32048;49.902;22.508;2022-09-09T12:20:21;16.60;;;11.80;;
37633;SDS011;32048;49.902;22.508;2022-09-09T12:33:45;16.05;;;11.52;;
37633;SDS011;32048;49.902;22.508;2022-09-09T12:36:15;16.25;;;12.00;;
37633;SDS011;32048;49.902;22.508;2022-09-09T12:38:45;14.88;;;10.52;;
37633;SDS011;32048;49.902;22.508;2022-09-09T12:41:50;13.95;;;11.25;;
37633;SDS011;32048;49.902;22.508;2022-09-09T12:44:06;19.73;;;11.60;;
37633;SDS011;32048;49.902;22.508;2022-09-09T12:46:38;14.77;;;11.75;;
37633;SDS011;32048;49.902;22.508;2022-09-09T12:52:15;13.10;;;10.70;;
37633;SDS011;32048;49.902;22.508;2022-09-09T12:54:49;17.55;;;10.90;;
37633;SDS011;32048;49.902;22.508;2022-09-09T12:59:45;13.60;;;10.07;;
37633;SDS011;32048;49.902;22.508;2022-09-09T13:02:19;15.77;;;10.57;;
37633;SDS011;32048;49.902;22.508;2022-09-09T13:04:47;16.52;;;10.60;;
37633;SDS011;32048;49.902;22.508;2022-09-09T13:07:14;15.48;;;11.50;;
37633;SDS011;32048;49.902;22.508;2022-09-09T13:09:43;18.33;;;12.13;;
37633;SDS011;32048;49.902;22.508;2022-09-09T13:12:18;16.60;;;11.80;;
37633;SDS011;32048;49.902;22.508;2022-09-09T13:14:48;20.95;;;14.57;;
37633;SDS011;32048;49.902;22.508;2022-09-09T13:17:20;29.67;;;17.10;;
37633;SDS011;32048;49.902;22.508;2022-09-09T13:19:49;17.60;;;12.40;;
37633;SDS011;32048;49.902;22.508;2022-09-09T13:27:38;17.80;;;12.10;;
37633;SDS011;32048;49.902;22.508;2022-09-09T13:30:19;16.52;;;11.18;;
37633;SDS011;32048;49.902;22.508;2022-09-09T13:38:24;17.48;;;12.50;;
37633;SDS011;32048;49.902;22.508;2022-09-09T13:43:21;16.73;;;12.18;;
37633;SDS011;32048;49.902;22.508;2022-09-09T13:45:56;19.63;;;14.57;;
37633;SDS011;32048;49.902;22.508;2022-09-09T13:48:25;50.80;;;35.45;;
37633;SDS011;32048;49.902;22.508;2022-09-09T13:50:56;24.05;;;18.48;;
37633;SDS011;32048;49.902;22.508;2022-09-09T13:53:29;16.70;;;13.50;;
37633;SDS011;32048;49.902;22.508;2022-09-09T13:55:57;16.67;;;12.40;;
37633;SDS011;32048;49.902;22.508;2022-09-09T13:58:24;18.25;;;13.40;;
37633;SDS011;32048;49.902;22.508;2022-09-09T14:00:52;18.98;;;13.90;;
37633;SDS011;32048;49.902;22.508;2022-09-09T14:03:20;18.60;;;12.85;;
37633;SDS011;32048;49.902;22.508;2022-09-09T14:05:47;17.30;;;12.85;;
37633;SDS011;32048;49.902;22.508;2022-09-09T14:08:23;15.90;;;12.50;;
37633;SDS011;32048;49.902;22.508;2022-09-09T14:10:52;16.10;;;13.35;;
37633;SDS011;32048;49.902;22.508;2022-09-09T14:13:22;21.83;;;13.48;;
37633;SDS011;32048;49.902;22.508;2022-09-09T14:15:49;16.33;;;13.27;;
37633;SDS011;32048;49.902;22.508;2022-09-09T14:18:16;18.40;;;12.18;;
37633;SDS011;32048;49.902;22.508;2022-09-09T14:20:43;17.35;;;12.73;;
37633;SDS011;32048;49.902;22.508;2022-09-09T14:23:11;19.13;;;12.75;;
37633;SDS011;32048;49.902;22.508;2022-09-09T14:25:40;16.25;;;12.60;;
37633;SDS011;32048;49.902;22.508;2022-09-09T14:28:09;18.73;;;12.65;;
37633;SDS011;32048;49.902;22.508;2022-09-09T14:30:38;18.40;;;12.80;;
37633;SDS011;32048;49.902;22.508;2022-09-09T14:33:07;16.40;;;12.20;;
37633;SDS011;32048;49.902;22.508;2022-09-09T14:35:36;17.15;;;12.52;;
37633;SDS011;32048;49.902;22.508;2022-09-09T14:38:03;16.38;;;12.95;;
37633;SDS011;32048;49.902;22.508;2022-09-09T14:40:31;17.35;;;12.65;;
37633;SDS011;32048;49.902;22.508;2022-09-09T14:42:58;18.30;;;13.27;;
37633;SDS011;32048;49.902;22.508;2022-09-09T14:45:25;20.25;;;13.40;;
37633;SDS011;32048;49.902;22.508;2022-09-09T14:47:53;17.85;;;12.57;;
37633;SDS011;32048;49.902;22.508;2022-09-09T14:50:20;22.17;;;13.25;;
37633;SDS011;32048;49.902;22.508;2022-09-09T14:52:47;17.58;;;12.45;;
37633;SDS011;32048;49.902;22.508;2022-09-09T14:55:14;18.20;;;13.18;;
37633;SDS011;32048;49.902;22.508;2022-09-09T14:57:42;16.38;;;12.35;;
37633;SDS011;32048;49.902;22.508;2022-09-09T15:00:09;18.42;;;11.55;;
37633;SDS011;32048;49.902;22.508;2022-09-09T15:02:38;17.60;;;12.73;;
37633;SDS011;32048;49.902;22.508;2022-09-09T15:05:05;17.58;;;13.50;;
37633;SDS011;32048;49.902;22.508;2022-09-09T15:07:32;20.30;;;13.45;;
37633;SDS011;32048;49.902;22.508;2022-09-09T15:10:00;22.20;;;13.20;;
37633;SDS011;32048;49.902;22.508;2022-09-09T15:12:27;18.45;;;12.13;;
37633;SDS011;32048;49.902;22.508;2022-09-09T15:14:54;17.33;;;12.82;;
37633;SDS011;32048;49.902;22.508;2022-09-09T15:17:22;15.25;;;10.93;;
37633;SDS011;32048;49.902;22.508;2022-09-09T15:19:51;20.75;;;12.00;;
37633;SDS011;32048;49.902;22.508;2022-09-09T15:22:18;18.67;;;13.15;;
37633;SDS011;32048;49.902;22.508;2022-09-09T15:24:45;17.92;;;13.07;;
37633;SDS011;32048;49.902;22.508;2022-09-09T15:27:12;18.60;;;13.68;;
37633;SDS011;32048;49.902;22.508;2022-09-09T15:29:41;18.95;;;13.35;;
37633;SDS011;32048;49.902;22.508;2022-09-09T15:32:08;16.88;;;11.95;;
37633;SDS011;32048;49.902;22.508;2022-09-09T15:34:35;15.43;;;11.10;;
37633;SDS011;32048;49.902;22.508;2022-09-09T15:37:02;17.10;;;12.55;;
37633;SDS011;32048;49.902;22.508;2022-09-09T15:39:29;17.67;;;12.02;;
37633;SDS011;32048;49.902;22.508;2022-09-09T15:41:56;18.10;;;12.70;;
37633;SDS011;32048;49.902;22.508;2022-09-09T15:44:23;18.35;;;11.90;;
37633;SDS011;32048;49.902;22.508;2022-09-09T15:46:52;19.35;;;12.52;;
37633;SDS011;32048;49.902;22.508;2022-09-09T15:49:23;20.42;;;13.32;;
37633;SDS011;32048;49.902;22.508;2022-09-09T15:51:53;17.63;;;12.82;;
37633;SDS011;32048;49.902;22.508;2022-09-09T15:54:22;21.67;;;12.75;;
37633;SDS011;32048;49.902;22.508;2022-09-09T15:57:00;20.88;;;13.52;;
37633;SDS011;32048;49.902;22.508;2022-09-09T15:59:29;17.17;;;12.15;;
37633;SDS011;32048;49.902;22.508;2022-09-09T16:01:58;18.08;;;13.25;;
37633;SDS011;32048;49.902;22.508;2022-09-09T16:04:26;21.70;;;14.20;;
37633;SDS011;32048;49.902;22.508;2022-09-09T16:06:57;23.92;;;14.93;;
37633;SDS011;32048;49.902;22.508;2022-09-09T16:09:27;20.17;;;14.65;;
37633;SDS011;32048;49.902;22.508;2022-09-09T16:11:58;24.85;;;14.98;;
37633;SDS011;32048;49.902;22.508;2022-09-09T16:14:27;19.02;;;13.90;;
37633;SDS011;32048;49.902;22.508;2022-09-09T16:16:55;22.38;;;14.90;;
37633;SDS011;32048;49.902;22.508;2022-09-09T16:19:22;24.13;;;15.07;;
37633;SDS011;32048;49.902;22.508;2022-09-09T16:21:49;21.75;;;15.73;;
37633;SDS011;32048;49.902;22.508;2022-09-09T16:24:17;29.25;;;17.98;;
37633;SDS011;32048;49.902;22.508;2022-09-09T16:26:49;20.15;;;14.35;;
37633;SDS011;32048;49.902;22.508;2022-09-09T16:29:18;20.83;;;15.27;;
37633;SDS011;32048;49.902;22.508;2022-09-09T16:31:47;20.77;;;14.90;;
37633;SDS011;32048;49.902;22.508;2022-09-09T16:34:15;20.40;;;15.13;;
37633;SDS011;32048;49.902;22.508;2022-09-09T16:36:44;21.60;;;15.43;;
37633;SDS011;32048;49.902;22.508;2022-09-09T16:39:12;23.95;;;16.05;;
37633;SDS011;32048;49.902;22.508;2022-09-09T16:44:09;22.95;;;14.30;;
37633;SDS011;32048;49.902;22.508;2022-09-09T16:46:37;23.45;;;13.85;;
37633;SDS011;32048;49.902;22.508;2022-09-09T16:49:08;22.35;;;15.57;;
37633;SDS011;32048;49.902;22.508;2022-09-09T16:51:38;27.90;;;18.42;;
37633;SDS011;32048;49.902;22.508;2022-09-09T16:54:07;27.65;;;18.67;;
37633;SDS011;32048;49.902;22.508;2022-09-09T16:56:36;26.33;;;18.70;;
37633;SDS011;32048;49.902;22.508;2022-09-09T16:59:05;27.85;;;18.00;;
37633;SDS011;32048;49.902;22.508;2022-09-09T17:01:35;21.98;;;16.25;;
37633;SDS011;32048;49.902;22.508;2022-09-09T17:04:06;23.42;;;15.57;;